createdAt,value
2023-10-29T00:06:42.579Z,17.8
2023-10-29T00:16:51.319Z,17.7
2023-10-29T00:27:00.208Z,17.5
2023-10-29T00:37:08.966Z,17.4
2023-10-29T00:47:17.745Z,17
2023-10-29T00:57:26.564Z,16.9
2023-10-29T01:07:35.322Z,16.9
2023-10-29T01:17:44.262Z,17.2
2023-10-29T01:27:53.051Z,17
2023-10-29T01:38:01.627Z,16.7
2023-10-29T01:48:10.441Z,16.7
2023-10-29T01:58:19.114Z,16.6
2023-10-29T02:08:27.983Z,16.4
2023-10-29T02:18:37.912Z,16.6
2023-10-29T02:28:46.743Z,16.5
2023-10-29T02:38:55.590Z,16.6
2023-10-29T02:49:04.465Z,16.3
2023-10-29T02:59:13.184Z,16.1
2023-10-29T03:09:21.963Z,16.2
2023-10-29T03:19:30.648Z,16.4
2023-10-29T03:29:39.515Z,16.2
2023-10-29T03:39:48.333Z,16.1
2023-10-29T03:49:57.099Z,16
2023-10-29T04:00:05.890Z,16
2023-10-29T04:10:14.764Z,15.7
2023-10-29T04:20:23.498Z,15.8
2023-10-29T04:30:32.281Z,15.9
2023-10-29T04:40:40.894Z,15.8
2023-10-29T04:50:49.750Z,15.9
2023-10-29T05:00:58.508Z,15.9
2023-10-29T05:11:07.216Z,16.1
2023-10-29T05:21:15.997Z,15.7
2023-10-29T05:31:24.726Z,15.5
2023-10-29T05:41:33.479Z,15.3
2023-10-29T05:51:42.256Z,15.3
2023-10-29T06:01:50.969Z,15.3
2023-10-29T06:11:59.653Z,15.3
2023-10-29T06:22:08.307Z,15.2
2023-10-29T06:32:17.066Z,15.3
2023-10-29T06:42:31.945Z,15.5
2023-10-29T06:52:30.678Z,15.4
2023-10-29T07:02:39.598Z,15.5
2023-10-29T07:12:48.175Z,15.5
2023-10-29T07:22:56.996Z,15.7
2023-10-29T07:33:05.833Z,15.8
2023-10-29T07:43:14.570Z,16.5
2023-10-29T08:03:31.557Z,18.3
2023-10-29T08:13:41.348Z,18.3
2023-10-29T08:23:40.328Z,18.9
2023-10-29T08:33:49.236Z,19.8
2023-10-29T08:43:58.047Z,20.3
2023-10-29T08:54:06.908Z,20.9
2023-10-29T09:04:15.736Z,22.3
2023-10-29T09:14:24.386Z,22.7
2023-10-29T09:24:33.173Z,23.1
2023-10-29T09:34:41.925Z,22.8
2023-10-29T09:44:50.859Z,23.3
2023-10-29T09:54:59.660Z,23.4
2023-10-29T10:05:08.299Z,23.2
2023-10-29T10:15:17.066Z,23.7
2023-10-29T10:25:25.852Z,24.3
2023-10-29T10:35:34.655Z,23.8
2023-10-29T10:45:43.409Z,23.1
2023-10-29T10:56:02.901Z,23.7
2023-10-29T11:05:59.109Z,23.2
2023-10-29T11:16:07.894Z,23.5
2023-10-29T11:26:16.592Z,23.4
2023-10-29T11:36:25.330Z,23.3
2023-10-29T11:46:34.195Z,22.9
2023-10-29T11:56:43.203Z,23.4
2023-10-29T12:06:54.862Z,23.9
2023-10-29T12:16:54.981Z,23.9
2023-10-29T12:27:03.783Z,24.2
2023-10-29T12:37:12.609Z,24.7
2023-10-29T12:47:21.564Z,24.5
2023-10-29T12:57:30.256Z,23.8
2023-10-29T13:07:39.196Z,23.3
2023-10-29T13:17:47.974Z,23.3
2023-10-29T13:27:56.829Z,23.8
2023-10-29T13:38:05.664Z,24.3
2023-10-29T13:48:14.622Z,24.7
2023-10-29T13:58:14.695Z,24.4
2023-10-29T14:08:14.778Z,24.3
2023-10-29T14:18:23.247Z,24.2
2023-10-29T14:28:32.713Z,24.1
2023-10-29T14:38:41.521Z,24
2023-10-29T14:48:50.289Z,24
2023-10-29T14:58:59.075Z,23.6
2023-10-29T15:09:07.887Z,23.3
2023-10-29T15:19:26.177Z,23.3
2023-10-29T15:29:25.669Z,23.2
2023-10-29T15:39:35.516Z,23.1
2023-10-29T15:49:36.751Z,22.3
2023-10-29T15:59:38.930Z,22.1
2023-10-29T16:09:38.804Z,22.2
2023-10-29T16:19:47.581Z,22
2023-10-29T16:29:56.401Z,21.8
2023-10-29T16:40:05.148Z,21.8
2023-10-29T16:50:14.026Z,21.7
2023-10-29T17:00:22.771Z,21.6
2023-10-29T17:10:31.486Z,21.4
2023-10-29T17:20:40.420Z,21.5
2023-10-29T17:30:49.247Z,21.5
2023-10-29T17:40:57.945Z,21.4
2023-10-29T17:51:06.261Z,21.3
2023-10-29T18:01:14.984Z,21.3
2023-10-29T18:11:23.631Z,21.1
2023-10-29T18:21:25.234Z,20.8
2023-10-29T18:31:33.997Z,20.7
2023-10-29T18:41:42.718Z,20.7
2023-10-29T18:51:52.529Z,20.6
2023-10-29T19:01:53.557Z,20.6
2023-10-29T19:11:54.802Z,20.7
2023-10-29T19:22:05.191Z,20.6
2023-10-29T19:42:05.908Z,20.4
2023-10-29T19:52:16.063Z,20.6
2023-10-29T20:02:16.174Z,20.5
2023-10-29T20:12:16.597Z,20.4
2023-10-29T20:22:17.754Z,20.3
2023-10-29T20:32:19.757Z,20
2023-10-29T20:42:29.622Z,19.8
2023-10-29T20:52:30.921Z,19.8
2023-10-29T21:02:30.333Z,19.8
2023-10-29T21:12:39.751Z,19.7
2023-10-29T21:22:48.728Z,19.7
2023-10-29T21:32:58.513Z,19.8
2023-10-29T21:42:58.010Z,19.3
2023-10-29T21:53:07.514Z,19.3
2023-10-29T22:03:16.302Z,19.1
2023-10-29T22:13:25.059Z,18.9
2023-10-29T22:23:34.877Z,18.8
2023-10-29T22:33:44.492Z,18.7
2023-10-29T22:43:53.586Z,18.5
2023-10-29T22:54:02.253Z,18.3
2023-10-29T23:04:04.052Z,18.1
2023-10-29T23:14:12.652Z,18
2023-10-29T23:24:22.079Z,18
2023-10-29T23:34:21.889Z,18
2023-10-29T23:44:31.866Z,18
2023-10-29T23:54:40.667Z,17.9
